Time;durP1;ratioP1;P1;durP2;ratioP2;P2;SDS_P1;SDS_P2;PMS_P1;PMS_P2;Temp;Humidity;BMP_temperature;BMP_pressure;BME280_temperature;BME280_humidity;BME280_pressure;Samples;Min_cycle;Max_cycle;Signal;HPM_P1;HPM_P2
2024/01/07 00:04:56;;;;;;;21.60;12.53;;;;;;;-1.35;100.00;101911.16;10418509;28;20493;-78
2024/01/07 00:09:57;;;;;;;17.70;12.07;;;;;;;-1.31;100.00;101928.75;10418318;28;20547;-76
2024/01/07 00:14:57;;;;;;;19.15;11.35;;;;;;;-1.30;100.00;101936.72;10418069;28;20076;-76
2024/01/07 00:19:57;;;;;;;16.45;10.95;;;;;;;-1.32;100.00;101930.63;10402967;28;20041;-76
2024/01/07 00:24:58;;;;;;;16.42;10.65;;;;;;;-1.32;100.00;101932.47;10418632;28;20045;-75
2024/01/07 00:29:59;;;;;;;18.40;10.85;;;;;;;-1.36;100.00;101939.19;10420804;28;20054;-75
2024/01/07 00:34:59;;;;;;;15.87;9.13;;;;;;;-1.35;100.00;101940.88;10392371;28;20034;-76
2024/01/07 00:39:59;;;;;;;19.50;10.17;;;;;;;-1.44;100.00;101943.47;10413565;28;20053;-76
2024/01/07 00:45:00;;;;;;;17.20;9.63;;;;;;;-1.43;100.00;101949.69;10418095;28;20045;-76
2024/01/07 00:50:00;;;;;;;16.23;10.33;;;;;;;-1.38;100.00;101962.78;10392506;28;20046;-77
2024/01/07 00:55:03;;;;;;;16.23;10.03;;;;;;;-1.39;100.00;101967.31;10415563;28;20038;-79
2024/01/07 01:00:07;;;;;;;17.10;10.20;;;;;;;-1.39;100.00;101977.28;10418340;28;20033;-77
2024/01/07 01:05:08;;;;;;;22.60;11.02;;;;;;;-1.42;100.00;101979.28;10415374;28;20041;-75
2024/01/07 01:10:09;;;;;;;27.90;10.07;;;;;;;-1.52;100.00;101975.75;10402421;28;20034;-76
2024/01/07 01:15:09;;;;;;;14.67;8.83;;;;;;;-1.74;100.00;101949.13;10417971;28;20041;-78
2024/01/07 01:20:10;;;;;;;18.93;10.33;;;;;;;-1.44;100.00;101994.78;10408153;28;20108;-77
2024/01/07 01:25:11;;;;;;;19.07;9.80;;;;;;;-1.45;100.00;102003.91;10417496;28;20049;-78
2024/01/07 01:30:12;;;;;;;13.43;8.43;;;;;;;-1.48;100.00;102008.75;10417069;28;20045;-78
2024/01/07 01:35:12;;;;;;;15.07;7.57;;;;;;;-1.48;100.00;102014.97;10417396;28;20037;-76
2024/01/07 01:40:13;;;;;;;13.27;8.07;;;;;;;-1.55;100.00;102015.72;10412376;28;20037;-76
2024/01/07 01:45:14;;;;;;;13.20;6.77;;;;;;;-1.52;100.00;102026.22;10416458;28;20147;-74
2024/01/07 01:50:15;;;;;;;13.50;7.77;;;;;;;-1.48;100.00;102035.75;10413759;28;20109;-76
2024/01/07 01:55:16;;;;;;;11.63;6.47;;;;;;;-1.55;100.00;102021.97;10398568;28;20077;-74
2024/01/07 02:00:17;;;;;;;10.70;6.70;;;;;;;-1.84;100.00;101993.19;10396395;28;20053;-76
2024/01/07 02:05:17;;;;;;;10.27;6.50;;;;;;;-1.59;100.00;102038.59;10404121;28;20045;-77
2024/01/07 02:10:18;;;;;;;9.30;6.40;;;;;;;-1.52;100.00;102056.78;10412690;28;20044;-76
2024/01/07 02:15:20;;;;;;;11.27;6.53;;;;;;;-1.64;100.00;102033.66;10412485;28;20044;-76
2024/01/07 02:20:20;;;;;;;18.90;11.50;;;;;;;-1.50;100.00;102067.44;10415453;28;20034;-78
2024/01/07 02:25:20;;;;;;;12.60;8.27;;;;;;;-1.65;100.00;102050.84;10404726;28;20045;-78
2024/01/07 02:30:21;;;;;;;10.30;6.00;;;;;;;-1.53;100.00;102065.91;10415546;28;20048;-78
2024/01/07 02:35:21;;;;;;;11.03;6.20;;;;;;;-1.68;100.00;102064.63;10415820;28;20103;-78
2024/01/07 02:40:22;;;;;;;8.53;5.87;;;;;;;-1.67;100.00;102082.56;10414369;28;20037;-78
2024/01/07 02:45:22;;;;;;;8.70;4.90;;;;;;;-1.67;100.00;102079.84;10429650;28;20042;-78
2024/01/07 02:50:23;;;;;;;9.07;4.50;;;;;;;-1.97;100.00;102043.91;10388873;28;20056;-78
2024/01/07 02:55:23;;;;;;;8.67;5.90;;;;;;;-1.73;100.00;102100.16;10412884;28;20062;-78
2024/01/07 03:00:24;;;;;;;8.23;5.10;;;;;;;-1.58;100.00;102108.69;10415357;28;20045;-79
2024/01/07 03:05:24;;;;;;;10.50;6.20;;;;;;;-1.63;100.00;102110.97;10422636;28;20041;-78
2024/01/07 03:10:25;;;;;;;12.90;4.60;;;;;;;-1.70;100.00;102104.44;10422470;28;20037;-78
2024/01/07 03:15:27;;;;;;;6.63;4.10;;;;;;;-1.98;100.00;102066.53;10404011;28;20116;-78
2024/01/07 03:20:27;;;;;;;6.47;4.13;;;;;;;-1.98;100.00;102071.91;10419859;28;20488;-78
2024/01/07 03:25:28;;;;;;;9.23;4.53;;;;;;;-1.70;100.00;102128.72;10420700;28;20092;-79
2024/01/07 03:30:28;;;;;;;6.17;3.73;;;;;;;-1.72;100.00;102131.56;10417008;28;20033;-77
2024/01/07 03:35:29;;;;;;;9.53;4.47;;;;;;;-1.74;100.00;102125.44;10415119;28;20099;-77
2024/01/07 03:40:29;;;;;;;5.30;4.20;;;;;;;-1.72;100.00;102130.72;10417821;28;20386;-77
2024/01/07 03:45:31;;;;;;;6.53;3.83;;;;;;;-1.60;100.00;102150.34;10419667;28;20513;-76
2024/01/07 03:50:31;;;;;;;9.43;4.97;;;;;;;-1.58;100.00;102154.59;10421816;28;20037;-78
2024/01/07 03:55:32;;;;;;;4.97;3.17;;;;;;;-1.74;100.00;102133.56;10421405;28;20045;-76
2024/01/07 04:00:32;;;;;;;4.77;2.80;;;;;;;-1.66;100.00;102158.00;10419909;28;20042;-76
2024/01/07 04:05:33;;;;;;;3.70;3.13;;;;;;;-1.70;100.00;102156.56;10401388;28;20044;-76
2024/01/07 04:10:33;;;;;;;6.03;3.33;;;;;;;-1.60;100.00;102172.78;10416921;28;20045;-76
2024/01/07 04:15:34;;;;;;;3.80;2.60;;;;;;;-2.17;100.00;102088.09;10410244;28;20489;-76
2024/01/07 04:20:34;;;;;;;9.60;2.70;;;;;;;-1.66;100.00;102195.78;10420394;28;20529;-77
2024/01/07 04:25:35;;;;;;;6.37;2.90;;;;;;;-1.66;100.00;102195.78;10418695;28;20044;-76
2024/01/07 04:30:35;;;;;;;4.90;2.27;;;;;;;-1.59;100.00;102196.09;10419787;28;20044;-72
2024/01/07 04:35:36;;;;;;;4.07;2.40;;;;;;;-1.62;100.00;102201.78;10420576;28;21510;-76
2024/01/07 04:40:36;;;;;;;6.67;2.30;;;;;;;-1.64;100.00;102214.56;10418534;28;20045;-77
2024/01/07 04:45:37;;;;;;;3.72;2.08;;;;;;;-1.70;100.00;102205.16;10419037;28;20041;-76
2024/01/07 04:50:38;;;;;;;4.10;1.90;;;;;;;-1.62;100.00;102224.22;10419467;28;20029;-77
2024/01/07 04:55:39;;;;;;;3.10;1.73;;;;;;;-1.62;100.00;102231.47;10419230;28;20537;-76
2024/01/07 05:00:39;;;;;;;6.57;1.87;;;;;;;-2.18;100.00;102152.00;10417238;28;20414;-77
2024/01/07 05:05:40;;;;;;;2.90;1.40;;;;;;;-1.68;100.00;102250.94;10415727;28;20041;-76
2024/01/07 05:10:40;;;;;;;5.83;2.20;;;;;;;-1.73;100.00;102251.38;10401846;28;20421;-76
2024/01/07 05:15:41;;;;;;;3.47;2.13;;;;;;;-1.75;100.00;102255.22;10399266;28;20045;-76
2024/01/07 05:20:41;;;;;;;4.30;2.83;;;;;;;-1.69;100.00;102277.09;10418254;28;20088;-74
2024/01/07 05:25:42;;;;;;;4.23;1.60;;;;;;;-1.77;100.00;102278.78;10415805;28;20041;-77
2024/01/07 05:30:43;;;;;;;7.60;2.00;;;;;;;-1.77;100.00;102287.75;10414009;28;20080;-76
2024/01/07 05:35:44;;;;;;;3.50;1.40;;;;;;;-1.69;100.00;102297.84;10399017;28;20471;-77
2024/01/07 05:40:44;;;;;;;3.67;1.90;;;;;;;-1.71;100.00;102303.38;10406191;28;20038;-76
2024/01/07 05:45:45;;;;;;;4.23;1.87;;;;;;;-1.68;100.00;102310.34;10416848;28;20169;-77
2024/01/07 05:50:45;;;;;;;2.97;1.73;;;;;;;-1.86;100.00;102289.44;10414735;28;20552;-76
2024/01/07 05:55:45;;;;;;;3.33;1.60;;;;;;;-1.71;100.00;102324.16;10406385;28;20497;-76
2024/01/07 06:00:46;;;;;;;4.37;1.40;;;;;;;-1.70;100.00;102339.34;10428751;28;20505;-76
2024/01/07 06:05:46;;;;;;;3.03;1.77;;;;;;;-1.66;100.00;102354.28;10403153;28;20505;-76
2024/01/07 06:10:47;;;;;;;3.30;1.40;;;;;;;-1.73;100.00;102348.56;10407369;28;20030;-76
2024/01/07 06:15:47;;;;;;;4.40;2.00;;;;;;;-1.69;100.00;102368.91;10419778;28;20052;-76
2024/01/07 06:20:48;;;;;;;4.47;1.70;;;;;;;-1.83;100.00;102353.94;10412869;28;20060;-76
2024/01/07 06:25:48;;;;;;;4.07;1.53;;;;;;;-1.81;100.00;102358.34;10412806;28;20064;-77
2024/01/07 06:30:49;;;;;;;3.40;1.97;;;;;;;-1.72;100.00;102387.22;10413962;28;20037;-77
2024/01/07 06:35:49;;;;;;;2.87;1.10;;;;;;;-1.76;100.00;102399.28;10413482;28;20099;-77
2024/01/07 06:40:50;;;;;;;7.73;1.80;;;;;;;-1.90;100.00;102382.47;10387734;28;20049;-76
2024/01/07 06:45:50;;;;;;;2.43;1.50;;;;;;;-1.50;100.00;102416.72;10415918;28;20060;-76
2024/01/07 06:50:50;;;;;;;1.90;1.43;;;;;;;-1.66;100.00;102389.38;10413056;28;20111;-77
2024/01/07 06:55:51;;;;;;;3.07;1.63;;;;;;;-1.54;100.00;102419.84;10406432;28;20049;-77
2024/01/07 07:00:52;;;;;;;2.30;1.47;;;;;;;-1.64;100.00;102430.59;10412415;28;20468;-78
2024/01/07 07:05:52;;;;;;;3.67;2.27;;;;;;;-1.82;100.00;102422.28;10411914;28;20038;-77
2024/01/07 07:10:53;;;;;;;4.43;1.93;;;;;;;-2.13;100.00;102434.88;10414602;28;20038;-77
2024/01/07 07:15:53;;;;;;;2.37;1.37;;;;;;;-2.13;100.00;102461.88;10414476;28;20136;-77
2024/01/07 07:20:54;;;;;;;2.67;1.40;;;;;;;-2.30;100.00;102456.06;10414978;28;20044;-77
2024/01/07 07:25:54;;;;;;;2.23;1.60;;;;;;;-2.33;100.00;102475.22;10407355;28;20065;-75
2024/01/07 07:30:55;;;;;;;4.63;2.17;;;;;;;-2.39;100.00;102489.25;10414716;28;20060;-71
2024/01/07 07:35:55;;;;;;;1.70;1.60;;;;;;;-2.41;100.00;102502.00;10405201;28;20059;-77
2024/01/07 07:40:55;;;;;;;2.90;1.70;;;;;;;-2.78;100.00;102461.94;10412958;28;20137;-76
2024/01/07 07:45:56;;;;;;;3.23;1.50;;;;;;;-2.53;100.00;102519.22;10411975;28;20038;-75
2024/01/07 07:50:56;;;;;;;3.80;2.30;;;;;;;-2.50;100.00;102535.13;10418740;28;20135;-75
2024/01/07 07:55:57;;;;;;;3.03;2.17;;;;;;;-2.44;100.00;102537.31;10418869;28;20065;-76
2024/01/07 08:00:58;;;;;;;3.67;1.50;;;;;;;-2.50;100.00;102524.34;10418592;28;20064;-75
2024/01/07 08:05:58;;;;;;;3.50;1.63;;;;;;;-2.25;100.00;102560.94;10402804;28;20519;-76
2024/01/07 08:10:58;;;;;;;3.80;1.47;;;;;;;-2.16;100.00;102559.28;10401388;28;20049;-75
2024/01/07 08:15:59;;;;;;;2.47;1.70;;;;;;;-2.04;100.00;102575.28;10410694;28;20041;-75
2024/01/07 08:21:00;;;;;;;2.53;1.87;;;;;;;-1.91;100.00;102583.19;10420522;28;20037;-75
2024/01/07 08:26:02;;;;;;;3.50;1.57;;;;;;;-1.88;100.00;102588.34;10416846;28;20053;-76
2024/01/07 08:31:02;;;;;;;1.70;1.53;;;;;;;-1.66;100.00;102600.00;10416563;28;20044;-76
2024/01/07 08:36:04;;;;;;;2.20;1.90;;;;;;;-1.69;100.00;102578.69;10418533;28;20447;-76
2024/01/07 08:41:05;;;;;;;5.07;2.73;;;;;;;-1.63;100.00;102578.16;10417986;28;20460;-76
2024/01/07 08:46:05;;;;;;;2.73;1.60;;;;;;;-1.49;100.00;102602.13;10418038;28;20037;-75
2024/01/07 08:51:06;;;;;;;4.23;1.90;;;;;;;-1.42;100.00;102597.06;10400591;28;20639;-75
2024/01/07 08:56:06;;;;;;;4.10;2.03;;;;;;;-1.42;100.00;102592.50;10414601;28;20034;-76
2024/01/07 09:01:07;;;;;;;3.27;2.40;;;;;;;-1.20;100.00;102612.22;10414164;28;20044;-75
2024/01/07 09:06:07;;;;;;;2.23;1.40;;;;;;;-1.26;100.00;102612.75;10415385;28;20076;-76
2024/01/07 09:11:11;;;;;;;5.73;1.70;;;;;;;-1.28;100.00;102614.75;10399300;28;20048;-76
2024/01/07 09:16:11;;;;;;;4.50;1.73;;;;;;;-1.08;100.00;102621.97;10414531;28;20101;-75
2024/01/07 09:21:12;;;;;;;2.67;1.23;;;;;;;-1.10;100.00;102618.53;10417360;28;20067;-75
2024/01/07 09:26:12;;;;;;;1.17;1.00;;;;;;;-0.90;100.00;102640.28;10417081;28;20038;-75
2024/01/07 09:31:13;;;;;;;3.17;1.63;;;;;;;-0.91;100.00;102635.84;10417497;28;20044;-76
2024/01/07 09:36:13;;;;;;;1.27;1.10;;;;;;;-0.85;100.00;102643.41;10385143;28;20037;-75
2024/01/07 09:41:13;;;;;;;4.37;1.20;;;;;;;-0.91;100.00;102638.56;10410205;28;20037;-74
2024/01/07 09:46:14;;;;;;;2.50;1.17;;;;;;;-0.82;100.00;102637.75;10413464;28;20045;-75
2024/01/07 09:51:14;;;;;;;2.27;1.20;;;;;;;-0.73;100.00;102655.84;10408649;28;20037;-75
2024/01/07 09:56:29;;;;;;;2.60;1.40;;;;;;;-0.68;100.00;102645.50;10414724;28;20112;-75
2024/01/07 10:01:30;;;;;;;4.13;1.73;;;;;;;-0.48;100.00;102661.78;10398592;28;20061;-75
2024/01/07 10:06:31;;;;;;;3.10;1.80;;;;;;;-0.46;100.00;102662.50;10396007;28;20075;-75
2024/01/07 10:11:32;;;;;;;2.37;1.30;;;;;;;-0.46;100.00;102666.06;10413761;28;20040;-75
2024/01/07 10:16:33;;;;;;;4.07;1.53;;;;;;;-0.43;100.00;102665.81;10416507;28;20067;-75
2024/01/07 10:21:34;;;;;;;3.77;1.40;;;;;;;-0.47;100.00;102652.69;10414069;28;20037;-76
2024/01/07 10:26:35;;;;;;;3.63;1.10;;;;;;;-0.26;100.00;102672.38;10381108;28;20053;-75
2024/01/07 10:31:36;;;;;;;3.57;1.40;;;;;;;-0.22;100.00;102671.13;10412538;28;20056;-76
2024/01/07 10:36:37;;;;;;;3.53;1.50;;;;;;;-0.16;100.00;102674.28;10413273;28;20060;-76
2024/01/07 10:41:37;;;;;;;1.53;1.40;;;;;;;-0.13;100.00;102661.31;10414789;28;20037;-77
2024/01/07 10:46:39;;;;;;;5.53;2.27;;;;;;;0.16;100.00;102674.03;10395846;28;20041;-77
2024/01/07 10:51:39;;;;;;;3.27;1.83;;;;;;;0.33;100.00;102667.03;10395583;28;20057;-77
2024/01/07 10:56:46;;;;;;;4.23;1.77;;;;;;;0.46;100.00;102678.47;10394177;28;20529;-79
2024/01/07 11:01:46;;;;;;;4.60;2.50;;;;;;;0.42;100.00;102687.03;10414925;28;20060;-78
2024/01/07 11:07:03;;;;;;;8.40;2.77;;;;;;;0.34;100.00;102685.88;10412101;28;20049;-79
2024/01/07 11:12:05;;;;;;;4.10;2.13;;;;;;;0.30;100.00;102694.44;10396302;28;20461;-79
2024/01/07 11:17:06;;;;;;;7.90;2.77;;;;;;;0.35;100.00;102692.13;10394868;28;20033;-79
2024/01/07 11:22:28;;;;;;;5.90;2.90;;;;;;;0.44;100.00;102710.25;10413225;28;20080;-80
2024/01/07 11:27:31;;;;;;;6.25;3.70;;;;;;;0.46;100.00;102713.69;10419575;28;20060;-80
2024/01/07 11:32:31;;;;;;;10.10;4.00;;;;;;;0.54;100.00;102723.81;10401642;28;20036;-82
2024/01/07 11:37:32;;;;;;;7.25;3.00;;;;;;;0.66;100.00;102724.50;10399856;28;20048;-81
2024/01/07 11:42:32;;;;;;;7.10;3.40;;;;;;;0.58;100.00;102725.25;10434291;28;20048;-80
2024/01/07 11:47:33;;;;;;;7.23;3.27;;;;;;;0.31;100.00;102706.97;10417315;28;20041;-80
2024/01/07 11:52:36;;;;;;;7.57;3.53;;;;;;;0.13;100.00;102677.88;10419161;28;20041;-82
2024/01/07 11:57:36;;;;;;;7.03;3.47;;;;;;;0.46;100.00;102715.53;10416647;28;20120;-82
2024/01/07 12:02:37;;;;;;;4.50;3.07;;;;;;;0.53;100.00;102711.25;10396580;28;20559;-82
2024/01/07 12:07:37;;;;;;;8.50;3.73;;;;;;;0.35;100.00;102675.88;10413101;28;20109;-82
2024/01/07 12:12:40;;;;;;;10.37;4.20;;;;;;;0.65;100.00;102722.81;10418185;28;20041;-83
2024/01/07 12:17:40;;;;;;;4.73;3.37;;;;;;;0.52;100.00;102710.41;10397962;28;20033;-83
2024/01/07 12:22:41;;;;;;;6.43;3.70;;;;;;;0.63;100.00;102716.69;10419212;28;20037;-83
2024/01/07 12:27:44;;;;;;;6.97;3.30;;;;;;;0.64;100.00;102713.84;10417629;28;20041;-84
2024/01/07 12:32:45;;;;;;;10.02;3.30;;;;;;;0.54;100.00;102713.84;10383320;28;20038;-85
2024/01/07 12:37:45;;;;;;;8.47;3.50;;;;;;;0.74;100.00;102728.22;10434551;28;20041;-83
2024/01/07 12:42:46;;;;;;;7.53;3.10;;;;;;;0.72;100.00;102711.22;10401473;28;20460;-86
2024/01/07 12:47:47;;;;;;;9.27;3.23;;;;;;;0.77;100.00;102702.69;10400414;28;20044;-84
2024/01/07 12:52:47;;;;;;;5.80;3.30;;;;;;;0.68;100.00;102717.94;10384180;28;20029;-85
2024/01/07 12:57:49;;;;;;;5.60;2.63;;;;;;;0.77;100.00;102708.09;10416409;28;20046;-82
2024/01/07 13:02:49;;;;;;;5.20;3.10;;;;;;;1.41;100.00;102733.66;10416425;28;20143;-84
2024/01/07 13:07:50;;;;;;;4.90;2.07;;;;;;;1.99;100.00;102721.66;10389571;28;20089;-87
2024/01/07 13:12:50;;;;;;;3.88;2.00;;;;;;;2.30;100.00;102705.03;10399501;28;20038;-85
2024/01/07 13:17:51;;;;;;;5.18;2.60;;;;;;;2.60;100.00;102714.63;10379080;28;20069;-84
2024/01/07 13:22:51;;;;;;;4.32;2.33;;;;;;;3.17;100.00;102706.91;10397201;28;20128;-84
2024/01/07 13:27:52;;;;;;;4.25;2.53;;;;;;;3.43;100.00;102716.91;10429178;28;20037;-83
2024/01/07 13:32:56;;;;;;;3.88;2.05;;;;;;;3.24;100.00;102712.56;10371748;28;20128;-83
2024/01/07 13:37:57;;;;;;;3.85;2.55;;;;;;;2.75;100.00;102728.53;10411307;28;20044;-82
2024/01/07 13:42:57;;;;;;;6.35;3.33;;;;;;;1.74;100.00;102737.66;10390797;28;20083;-81
2024/01/07 13:47:58;;;;;;;5.13;3.10;;;;;;;1.11;100.00;102751.00;10404184;28;20045;-81
2024/01/07 13:52:58;;;;;;;12.27;3.78;;;;;;;0.51;100.00;102765.59;10375623;28;20057;-81
2024/01/07 13:57:59;;;;;;;3.67;3.28;;;;;;;0.20;100.00;102791.94;10411471;28;20069;-81
2024/01/07 14:02:59;;;;;;;6.47;3.60;;;;;;;-0.19;100.00;102753.91;10385911;28;20034;-81
2024/01/07 14:08:00;;;;;;;8.93;3.70;;;;;;;-0.25;100.00;102776.97;10378145;28;20057;-82
2024/01/07 14:13:00;;;;;;;6.33;3.70;;;;;;;-0.32;100.00;102791.19;10407780;28;20038;-82
2024/01/07 14:18:01;;;;;;;4.33;3.50;;;;;;;-0.43;100.00;102782.16;10413343;28;20055;-82
2024/01/07 14:23:02;;;;;;;4.70;3.17;;;;;;;-0.48;100.00;102791.66;10418796;28;20417;-83
2024/01/07 14:28:03;;;;;;;7.60;3.53;;;;;;;-0.53;100.00;102799.34;10376596;28;20410;-82
2024/01/07 14:33:04;;;;;;;7.50;3.67;;;;;;;-0.62;100.00;102804.56;10393657;28;20029;-85
2024/01/07 14:38:05;;;;;;;4.67;3.47;;;;;;;-0.57;100.00;102806.84;10387446;28;20080;-76
2024/01/07 14:43:05;;;;;;;9.07;3.33;;;;;;;-0.77;100.00;102803.16;10378298;28;20053;-80
2024/01/07 14:48:06;;;;;;;6.63;3.63;;;;;;;-0.79;100.00;102825.94;10411126;28;20048;-81
2024/01/07 14:53:06;;;;;;;8.02;3.00;;;;;;;-1.02;100.00;102826.88;10393640;28;20041;-80
2024/01/07 14:58:07;;;;;;;8.07;3.33;;;;;;;-1.12;100.00;102836.75;10416597;28;20037;-80
2024/01/07 15:03:08;;;;;;;7.20;3.47;;;;;;;-1.37;100.00;102829.00;10420529;28;20041;-80
2024/01/07 15:08:08;;;;;;;5.33;3.23;;;;;;;-1.48;100.00;102825.34;10421265;28;20049;-79
2024/01/07 15:13:09;;;;;;;8.60;3.90;;;;;;;-1.58;100.00;102818.13;10418315;28;20434;-78
2024/01/07 15:18:11;;;;;;;8.33;3.70;;;;;;;-1.53;100.00;102857.31;10418363;28;20041;-79
2024/01/07 15:23:12;;;;;;;8.67;3.93;;;;;;;-2.03;100.00;102792.94;10417609;28;20037;-77
2024/01/07 15:28:13;;;;;;;7.23;4.13;;;;;;;-1.73;100.00;102863.47;10420732;28;20042;-78
2024/01/07 15:33:14;;;;;;;7.70;3.33;;;;;;;-1.84;100.00;102857.09;10420767;28;20050;-74
2024/01/07 15:38:14;;;;;;;5.73;3.63;;;;;;;-1.89;100.00;102872.78;10415108;28;20041;-77
2024/01/07 15:43:15;;;;;;;5.07;3.57;;;;;;;-2.12;100.00;102853.03;10432679;28;20037;-78
2024/01/07 15:48:16;;;;;;;7.53;4.00;;;;;;;-2.04;100.00;102860.53;10417045;28;20068;-77
2024/01/07 15:53:16;;;;;;;9.80;3.80;;;;;;;-2.07;100.00;102882.34;10407954;28;20034;-77
2024/01/07 15:58:16;;;;;;;5.00;3.20;;;;;;;-2.18;100.00;102879.66;10392960;28;20041;-76
2024/01/07 16:03:17;;;;;;;8.60;3.93;;;;;;;-2.19;100.00;102883.31;10416546;28;20042;-76
2024/01/07 16:08:17;;;;;;;7.30;3.60;;;;;;;-2.35;100.00;102872.91;10433604;28;20045;-75
2024/01/07 16:13:18;;;;;;;5.47;3.47;;;;;;;-2.42;100.00;102877.91;10408612;28;20057;-75
2024/01/07 16:18:18;;;;;;;6.20;3.47;;;;;;;-2.32;100.00;102910.41;10415837;28;20041;-75
2024/01/07 16:23:19;;;;;;;7.97;4.33;;;;;;;-2.39;100.00;102915.44;10432072;28;20060;-75
2024/01/07 16:28:20;;;;;;;9.53;3.53;;;;;;;-2.41;100.00;102922.78;10416719;28;20037;-74
2024/01/07 16:33:20;;;;;;;5.70;3.20;;;;;;;-2.47;100.00;102923.25;10407907;28;20050;-76
2024/01/07 16:38:21;;;;;;;4.93;3.73;;;;;;;-2.54;100.00;102927.41;10431650;28;20055;-74
2024/01/07 16:43:21;;;;;;;8.70;3.67;;;;;;;-2.61;100.00;102928.84;10417728;28;20056;-74
2024/01/07 16:48:22;;;;;;;7.83;3.70;;;;;;;-2.55;100.00;102944.56;10412043;28;20042;-74
2024/01/07 16:53:23;;;;;;;5.17;3.63;;;;;;;-2.63;100.00;102939.75;10417298;28;20095;-74
2024/01/07 16:58:23;;;;;;;6.17;3.33;;;;;;;-2.72;100.00;102930.53;10398971;28;20050;-73
2024/01/07 17:03:24;;;;;;;7.63;3.53;;;;;;;-2.72;100.00;102957.50;10415984;28;20483;-74
2024/01/07 17:08:24;;;;;;;5.33;3.20;;;;;;;-2.95;100.00;102918.78;10417770;28;20050;-74
2024/01/07 17:13:25;;;;;;;10.23;4.17;;;;;;;-2.75;100.00;102973.03;10419755;28;20042;-70
2024/01/07 17:18:25;;;;;;;6.83;3.03;;;;;;;-2.72;100.00;102979.06;10397739;28;20066;-74
2024/01/07 17:23:26;;;;;;;5.43;2.77;;;;;;;-2.80;100.00;102957.22;10429481;28;20083;-73
2024/01/07 17:28:26;;;;;;;5.43;2.70;;;;;;;-2.79;100.00;102956.25;10414839;28;20048;-73
2024/01/07 17:33:27;;;;;;;4.67;2.80;;;;;;;-2.65;100.00;102979.44;10415428;28;20038;-74
2024/01/07 17:38:27;;;;;;;8.67;3.87;;;;;;;-2.59;100.00;102994.31;10412077;28;20371;-74
2024/01/07 17:43:28;;;;;;;6.03;4.37;;;;;;;-2.52;100.00;103006.34;10398142;28;20080;-73
2024/01/07 17:48:29;;;;;;;8.10;3.80;;;;;;;-2.47;100.00;103004.19;10411851;28;20042;-74
2024/01/07 17:53:35;;;;;;;6.23;3.87;;;;;;;-2.41;100.00;103003.72;10413567;28;20450;-73
2024/01/07 17:58:36;;;;;;;6.37;4.33;;;;;;;-2.54;100.00;102971.44;10411017;28;20040;-73
2024/01/07 18:03:36;;;;;;;6.10;3.67;;;;;;;-2.39;100.00;103004.47;10412936;28;20033;-74
2024/01/07 18:08:37;;;;;;;6.00;3.37;;;;;;;-2.34;100.00;103021.13;10400705;28;20045;-74
2024/01/07 18:13:37;;;;;;;4.40;3.13;;;;;;;-2.30;100.00;103022.63;10429005;28;20076;-74
2024/01/07 18:18:37;;;;;;;3.93;2.90;;;;;;;-2.42;100.00;103001.97;10417360;28;20037;-73
2024/01/07 18:23:38;;;;;;;4.37;2.90;;;;;;;-2.40;100.00;103008.13;10395254;28;20052;-73
2024/01/07 18:28:39;;;;;;;6.10;2.90;;;;;;;-2.34;100.00;103031.94;10413553;28;20045;-75
2024/01/07 18:33:40;;;;;;;5.43;2.30;;;;;;;-2.38;100.00;103030.44;10389504;28;20034;-74
2024/01/07 18:38:40;;;;;;;8.20;3.03;;;;;;;-2.45;100.00;103024.66;10384213;28;20157;-75
2024/01/07 18:43:41;;;;;;;5.57;3.50;;;;;;;-2.29;100.00;103045.94;10389246;28;20455;-74
2024/01/07 18:48:42;;;;;;;5.53;3.20;;;;;;;-2.30;100.00;103054.16;10378444;28;20045;-74
2024/01/07 18:53:42;;;;;;;4.97;2.17;;;;;;;-2.32;100.00;103056.09;10392155;28;20044;-75
2024/01/07 18:58:42;;;;;;;6.10;3.00;;;;;;;-2.37;100.00;103058.31;10369058;28;20041;-75
2024/01/07 19:03:43;;;;;;;4.87;2.90;;;;;;;-2.41;100.00;103052.28;10395009;28;20037;-75
2024/01/07 19:08:44;;;;;;;5.60;2.80;;;;;;;-2.46;100.00;103065.22;10410993;28;20056;-77
2024/01/07 19:13:45;;;;;;;3.90;2.27;;;;;;;-2.58;100.00;103055.34;10365926;28;20042;-75
2024/01/07 19:18:45;;;;;;;3.10;2.17;;;;;;;-2.68;100.00;103053.34;10365299;28;20044;-75
2024/01/07 19:23:46;;;;;;;3.93;2.33;;;;;;;-2.59;100.00;103073.38;10393821;28;20033;-75
2024/01/07 19:28:46;;;;;;;3.73;2.43;;;;;;;-2.68;100.00;103063.28;10392605;28;20037;-74
2024/01/07 19:33:47;;;;;;;5.00;2.70;;;;;;;-2.58;100.00;103076.94;10367559;28;20045;-74
2024/01/07 19:38:52;;;;;;;3.63;2.43;;;;;;;-2.61;100.00;103067.25;10371054;28;20237;-76
2024/01/07 19:43:53;;;;;;;3.80;2.30;;;;;;;-2.73;100.00;103063.63;10383885;28;20050;-76
2024/01/07 19:48:54;;;;;;;4.40;2.53;;;;;;;-2.57;100.00;103090.31;10374990;28;20577;-76
2024/01/07 19:53:55;;;;;;;6.03;3.17;;;;;;;-2.52;100.00;103092.66;10373397;28;20049;-75
2024/01/07 19:58:56;;;;;;;7.70;2.67;;;;;;;-2.51;100.00;103089.84;10393302;28;20038;-77
2024/01/07 20:03:56;;;;;;;4.03;2.77;;;;;;;-2.56;100.00;103080.38;10393421;28;20054;-76
2024/01/07 20:08:57;;;;;;;4.90;2.37;;;;;;;-2.58;100.00;103076.94;10358376;28;20053;-76
2024/01/07 20:13:57;;;;;;;4.73;2.57;;;;;;;-2.46;100.00;103097.59;10381983;28;20060;-76
2024/01/07 20:18:58;;;;;;;4.00;2.40;;;;;;;-2.55;100.00;103079.41;10400033;28;20434;-76
2024/01/07 20:24:02;;;;;;;2.03;1.57;;;;;;;-2.53;100.00;103086.41;10390594;28;20046;-76
2024/01/07 20:29:07;;;;;;;4.03;2.10;;;;;;;-2.52;100.00;103103.44;10384548;28;20501;-76
2024/01/07 20:34:07;;;;;;;2.88;1.90;;;;;;;-2.55;100.00;103076.72;10409161;28;20034;-76
2024/01/07 20:39:08;;;;;;;4.07;2.57;;;;;;;-2.49;100.00;103087.06;10390530;28;20108;-76
2024/01/07 20:44:09;;;;;;;4.93;2.53;;;;;;;-2.45;100.00;103096.63;10366745;28;20029;-74
2024/01/07 20:49:10;;;;;;;3.93;2.40;;;;;;;-2.50;100.00;103096.09;10392152;28;20571;-76
2024/01/07 20:54:10;;;;;;;4.90;2.83;;;;;;;-2.46;100.00;103108.38;10402309;28;20038;-76
2024/01/07 20:59:12;;;;;;;4.83;2.50;;;;;;;-2.45;100.00;103118.22;10402863;28;20038;-75
2024/01/07 21:04:12;;;;;;;5.80;3.23;;;;;;;-2.43;100.00;103118.97;10396449;28;20056;-76
2024/01/07 21:09:13;;;;;;;5.83;2.53;;;;;;;-2.54;100.00;103100.88;10394215;28;20049;-75
2024/01/07 21:14:13;;;;;;;4.43;2.73;;;;;;;-2.57;100.00;103101.09;10389478;28;20037;-76
2024/01/07 21:19:14;;;;;;;5.10;3.40;;;;;;;-2.52;100.00;103114.22;10374872;28;20042;-75
2024/01/07 21:24:14;;;;;;;4.83;3.00;;;;;;;-2.55;100.00;103096.44;10406843;28;20464;-76
2024/01/07 21:29:15;;;;;;;7.17;3.53;;;;;;;-2.47;100.00;103123.72;10397160;28;20042;-76
2024/01/07 21:34:16;;;;;;;5.10;2.80;;;;;;;-2.59;100.00;103099.50;10397104;28;20041;-76
2024/01/07 21:39:17;;;;;;;5.23;2.90;;;;;;;-2.47;100.00;103118.31;10401327;28;20335;-76
2024/01/07 21:44:17;;;;;;;6.73;3.87;;;;;;;-2.54;100.00;103106.28;10380035;28;20041;-76
2024/01/07 21:49:18;;;;;;;4.90;2.73;;;;;;;-2.50;100.00;103120.38;10390989;28;20100;-76
2024/01/07 21:54:19;;;;;;;6.07;2.73;;;;;;;-2.66;100.00;103108.03;10367870;28;20033;-76
2024/01/07 21:59:19;;;;;;;6.13;3.17;;;;;;;-2.52;100.00;103128.59;10396403;28;20033;-76
2024/01/07 22:04:20;;;;;;;6.77;3.73;;;;;;;-2.56;100.00;103118.13;10371051;28;20034;-74
2024/01/07 22:09:20;;;;;;;7.13;2.83;;;;;;;-2.52;100.00;103135.81;10408981;28;20045;-76
2024/01/07 22:14:21;;;;;;;6.70;3.30;;;;;;;-2.67;100.00;103103.63;10371714;28;20129;-76
2024/01/07 22:19:21;;;;;;;4.57;3.17;;;;;;;-2.69;100.00;103113.66;10418488;28;20045;-76
2024/01/07 22:24:22;;;;;;;7.33;3.73;;;;;;;-2.52;100.00;103146.59;10395538;28;20042;-76
2024/01/07 22:29:23;;;;;;;5.37;2.73;;;;;;;-2.56;100.00;103140.59;10369917;28;20041;-76
2024/01/07 22:34:23;;;;;;;4.67;2.77;;;;;;;-2.62;100.00;103129.41;10368476;28;20042;-76
2024/01/07 22:39:24;;;;;;;4.80;3.07;;;;;;;-2.56;100.00;103137.91;10401084;28;20072;-76
2024/01/07 22:44:25;;;;;;;6.33;3.20;;;;;;;-2.55;100.00;103142.28;10408478;28;20034;-76
2024/01/07 22:49:26;;;;;;;7.20;3.37;;;;;;;-2.49;100.00;103146.38;10393046;28;20056;-76